sensor_id;sensor_type;location;lat;lon;timestamp;temperature;humidity
19174;DHT22;9719;49.322;8.536;2023-07-08T00:00:57;26.60;60.60
19174;DHT22;9719;49.322;8.536;2023-07-08T00:06:00;26.60;60.60
19174;DHT22;9719;49.322;8.536;2023-07-08T00:11:04;26.60;60.60
19174;DHT22;9719;49.322;8.536;2023-07-08T00:16:10;26.60;60.60
19174;DHT22;9719;49.322;8.536;2023-07-08T00:21:15;26.60;60.70
19174;DHT22;9719;49.322;8.536;2023-07-08T00:26:21;26.60;60.70
19174;DHT22;9719;49.322;8.536;2023-07-08T00:31:24;26.60;60.70
19174;DHT22;9719;49.322;8.536;2023-07-08T00:36:27;26.60;60.80
19174;DHT22;9719;49.322;8.536;2023-07-08T00:41:32;26.60;60.80
19174;DHT22;9719;49.322;8.536;2023-07-08T00:46:46;26.60;60.90
19174;DHT22;9719;49.322;8.536;2023-07-08T00:51:51;26.60;60.90
19174;DHT22;9719;49.322;8.536;2023-07-08T00:56:55;26.60;60.90
19174;DHT22;9719;49.322;8.536;2023-07-08T01:01:59;26.60;61.00
19174;DHT22;9719;49.322;8.536;2023-07-08T01:07:04;26.60;61.10
19174;DHT22;9719;49.322;8.536;2023-07-08T01:12:11;26.60;61.10
19174;DHT22;9719;49.322;8.536;2023-07-08T01:17:14;26.60;61.20
19174;DHT22;9719;49.322;8.536;2023-07-08T01:22:17;26.50;61.10
19174;DHT22;9719;49.322;8.536;2023-07-08T01:27:19;26.60;61.30
19174;DHT22;9719;49.322;8.536;2023-07-08T01:32:21;26.50;61.30
19174;DHT22;9719;49.322;8.536;2023-07-08T01:37:27;26.50;61.40
19174;DHT22;9719;49.322;8.536;2023-07-08T01:42:29;26.50;61.40
19174;DHT22;9719;49.322;8.536;2023-07-08T01:47:30;26.50;61.40
19174;DHT22;9719;49.322;8.536;2023-07-08T01:52:33;26.50;61.40
19174;DHT22;9719;49.322;8.536;2023-07-08T01:57:35;26.50;61.50
19174;DHT22;9719;49.322;8.536;2023-07-08T02:02:36;26.50;61.50
19174;DHT22;9719;49.322;8.536;2023-07-08T02:07:39;26.50;61.60
19174;DHT22;9719;49.322;8.536;2023-07-08T02:12:41;26.50;61.60
19174;DHT22;9719;49.322;8.536;2023-07-08T02:17:43;26.50;61.60
19174;DHT22;9719;49.322;8.536;2023-07-08T02:22:46;26.50;61.70
19174;DHT22;9719;49.322;8.536;2023-07-08T02:27:47;26.50;61.70
19174;DHT22;9719;49.322;8.536;2023-07-08T02:32:49;26.50;61.80
19174;DHT22;9719;49.322;8.536;2023-07-08T02:37:58;26.40;61.70
19174;DHT22;9719;49.322;8.536;2023-07-08T02:43:00;26.50;61.80
19174;DHT22;9719;49.322;8.536;2023-07-08T02:48:01;26.40;61.80
19174;DHT22;9719;49.322;8.536;2023-07-08T02:53:04;26.40;61.80
19174;DHT22;9719;49.322;8.536;2023-07-08T02:58:06;26.40;61.90
19174;DHT22;9719;49.322;8.536;2023-07-08T03:03:08;26.40;61.90
19174;DHT22;9719;49.322;8.536;2023-07-08T03:08:11;26.40;61.90
19174;DHT22;9719;49.322;8.536;2023-07-08T03:13:12;26.40;61.90
19174;DHT22;9719;49.322;8.536;2023-07-08T03:18:14;26.40;62.00
19174;DHT22;9719;49.322;8.536;2023-07-08T03:23:17;26.40;62.00
19174;DHT22;9719;49.322;8.536;2023-07-08T03:28:19;26.40;62.10
19174;DHT22;9719;49.322;8.536;2023-07-08T03:33:21;26.40;62.10
19174;DHT22;9719;49.322;8.536;2023-07-08T03:38:23;26.40;62.20
19174;DHT22;9719;49.322;8.536;2023-07-08T03:43:25;26.30;62.10
19174;DHT22;9719;49.322;8.536;2023-07-08T03:48:27;26.30;62.20
19174;DHT22;9719;49.322;8.536;2023-07-08T03:53:30;26.30;62.20
19174;DHT22;9719;49.322;8.536;2023-07-08T03:58:32;26.30;62.20
19174;DHT22;9719;49.322;8.536;2023-07-08T04:03:33;26.30;62.20
19174;DHT22;9719;49.322;8.536;2023-07-08T04:08:36;26.30;62.30
19174;DHT22;9719;49.322;8.536;2023-07-08T04:13:38;26.30;62.30
19174;DHT22;9719;49.322;8.536;2023-07-08T04:18:40;26.30;62.40
19174;DHT22;9719;49.322;8.536;2023-07-08T04:23:43;26.30;62.40
19174;DHT22;9719;49.322;8.536;2023-07-08T04:28:44;26.30;62.40
19174;DHT22;9719;49.322;8.536;2023-07-08T04:33:46;26.30;62.40
19174;DHT22;9719;49.322;8.536;2023-07-08T04:38:49;26.30;62.40
19174;DHT22;9719;49.322;8.536;2023-07-08T04:43:51;26.30;62.40
19174;DHT22;9719;49.322;8.536;2023-07-08T04:48:53;26.30;62.40
19174;DHT22;9719;49.322;8.536;2023-07-08T04:53:57;26.30;62.40
19174;DHT22;9719;49.322;8.536;2023-07-08T04:58:58;26.30;62.40
19174;DHT22;9719;49.322;8.536;2023-07-08T05:04:00;26.30;62.40
19174;DHT22;9719;49.322;8.536;2023-07-08T05:09:04;26.30;62.50
19174;DHT22;9719;49.322;8.536;2023-07-08T05:14:06;26.30;62.50
19174;DHT22;9719;49.322;8.536;2023-07-08T05:19:08;26.30;62.50
19174;DHT22;9719;49.322;8.536;2023-07-08T05:24:12;26.30;62.40
19174;DHT22;9719;49.322;8.536;2023-07-08T05:29:13;26.30;62.40
19174;DHT22;9719;49.322;8.536;2023-07-08T05:34:15;26.30;62.40
19174;DHT22;9719;49.322;8.536;2023-07-08T05:39:18;26.30;62.40
19174;DHT22;9719;49.322;8.536;2023-07-08T05:44:20;26.30;62.40
19174;DHT22;9719;49.322;8.536;2023-07-08T05:49:21;26.30;62.40
19174;DHT22;9719;49.322;8.536;2023-07-08T05:54:24;26.30;62.40
19174;DHT22;9719;49.322;8.536;2023-07-08T05:59:26;26.30;62.40
19174;DHT22;9719;49.322;8.536;2023-07-08T06:04:28;26.30;62.40
19174;DHT22;9719;49.322;8.536;2023-07-08T06:09:32;26.30;62.40
19174;DHT22;9719;49.322;8.536;2023-07-08T06:14:34;26.30;62.40
19174;DHT22;9719;49.322;8.536;2023-07-08T06:19:36;26.30;62.40
19174;DHT22;9719;49.322;8.536;2023-07-08T06:24:39;26.30;62.40
19174;DHT22;9719;49.322;8.536;2023-07-08T06:29:42;26.30;62.50
19174;DHT22;9719;49.322;8.536;2023-07-08T06:34:43;26.30;62.50
19174;DHT22;9719;49.322;8.536;2023-07-08T06:39:46;26.30;62.50
19174;DHT22;9719;49.322;8.536;2023-07-08T06:44:48;26.30;62.50
19174;DHT22;9719;49.322;8.536;2023-07-08T06:49:51;26.30;62.60
19174;DHT22;9719;49.322;8.536;2023-07-08T06:54:54;26.40;62.50
19174;DHT22;9719;49.322;8.536;2023-07-08T06:59:56;26.40;62.40
19174;DHT22;9719;49.322;8.536;2023-07-08T07:04:58;26.50;62.60
19174;DHT22;9719;49.322;8.536;2023-07-08T07:10:02;26.50;62.60
19174;DHT22;9719;49.322;8.536;2023-07-08T07:15:05;26.50;62.70
19174;DHT22;9719;49.322;8.536;2023-07-08T07:20:08;26.60;62.90
19174;DHT22;9719;49.322;8.536;2023-07-08T07:25:11;26.60;63.00
19174;DHT22;9719;49.322;8.536;2023-07-08T07:30:13;26.60;62.80
19174;DHT22;9719;49.322;8.536;2023-07-08T07:35:15;26.60;63.00
19174;DHT22;9719;49.322;8.536;2023-07-08T07:40:18;26.70;63.30
19174;DHT22;9719;49.322;8.536;2023-07-08T07:45:20;26.70;63.40
19174;DHT22;9719;49.322;8.536;2023-07-08T07:50:23;26.70;63.70
19174;DHT22;9719;49.322;8.536;2023-07-08T07:55:26;26.70;63.70
19174;DHT22;9719;49.322;8.536;2023-07-08T08:00:27;26.80;63.80
19174;DHT22;9719;49.322;8.536;2023-07-08T08:05:31;26.80;63.80
19174;DHT22;9719;49.322;8.536;2023-07-08T08:10:34;26.80;63.80
19174;DHT22;9719;49.322;8.536;2023-07-08T08:15:36;26.80;63.90
19174;DHT22;9719;49.322;8.536;2023-07-08T08:20:38;26.80;64.00
19174;DHT22;9719;49.322;8.536;2023-07-08T08:25:41;26.80;64.00
19174;DHT22;9719;49.322;8.536;2023-07-08T08:30:46;26.80;64.00
19174;DHT22;9719;49.322;8.536;2023-07-08T08:35:48;26.90;64.10
19174;DHT22;9719;49.322;8.536;2023-07-08T08:40:51;26.90;64.20
19174;DHT22;9719;49.322;8.536;2023-07-08T08:45:57;26.90;64.20
19174;DHT22;9719;49.322;8.536;2023-07-08T08:51:07;27.00;64.30
19174;DHT22;9719;49.322;8.536;2023-07-08T08:56:20;27.00;65.10
19174;DHT22;9719;49.322;8.536;2023-07-08T09:01:22;27.00;64.30
19174;DHT22;9719;49.322;8.536;2023-07-08T09:06:26;27.00;64.20
19174;DHT22;9719;49.322;8.536;2023-07-08T09:11:39;27.00;64.20
19174;DHT22;9719;49.322;8.536;2023-07-08T09:16:46;27.10;64.20
19174;DHT22;9719;49.322;8.536;2023-07-08T09:21:55;27.10;64.30
19174;DHT22;9719;49.322;8.536;2023-07-08T09:27:01;27.10;64.20
19174;DHT22;9719;49.322;8.536;2023-07-08T09:32:14;27.20;64.30
19174;DHT22;9719;49.322;8.536;2023-07-08T09:37:25;27.20;64.10
19174;DHT22;9719;49.322;8.536;2023-07-08T09:42:31;27.20;64.20
19174;DHT22;9719;49.322;8.536;2023-07-08T09:47:35;27.20;64.30
19174;DHT22;9719;49.322;8.536;2023-07-08T09:52:37;27.20;64.20
19174;DHT22;9719;49.322;8.536;2023-07-08T09:57:40;27.20;64.10
19174;DHT22;9719;49.322;8.536;2023-07-08T10:02:45;27.20;64.10
19174;DHT22;9719;49.322;8.536;2023-07-08T10:07:48;27.30;64.10
19174;DHT22;9719;49.322;8.536;2023-07-08T10:12:59;27.30;64.10
19174;DHT22;9719;49.322;8.536;2023-07-08T10:18:01;27.30;64.10
19174;DHT22;9719;49.322;8.536;2023-07-08T10:23:15;27.30;64.10
19174;DHT22;9719;49.322;8.536;2023-07-08T10:28:31;27.40;64.10
19174;DHT22;9719;49.322;8.536;2023-07-08T10:39:17;27.40;64.00
19174;DHT22;9719;49.322;8.536;2023-07-08T10:44:30;27.40;63.90
19174;DHT22;9719;49.322;8.536;2023-07-08T10:49:48;27.40;63.90
19174;DHT22;9719;49.322;8.536;2023-07-08T10:55:02;27.50;63.90
19174;DHT22;9719;49.322;8.536;2023-07-08T11:00:16;27.50;63.90
19174;DHT22;9719;49.322;8.536;2023-07-08T11:05:28;27.50;63.80
19174;DHT22;9719;49.322;8.536;2023-07-08T11:10:36;27.50;63.80
19174;DHT22;9719;49.322;8.536;2023-07-08T11:15:45;27.60;64.00
19174;DHT22;9719;49.322;8.536;2023-07-08T11:20:55;27.60;63.90
19174;DHT22;9719;49.322;8.536;2023-07-08T11:26:10;27.70;63.80
19174;DHT22;9719;49.322;8.536;2023-07-08T11:31:15;27.60;63.70
19174;DHT22;9719;49.322;8.536;2023-07-08T11:36:20;27.70;63.80
19174;DHT22;9719;49.322;8.536;2023-07-08T11:41:24;27.70;63.60
19174;DHT22;9719;49.322;8.536;2023-07-08T11:46:32;27.70;63.60
19174;DHT22;9719;49.322;8.536;2023-07-08T11:51:37;27.80;63.70
19174;DHT22;9719;49.322;8.536;2023-07-08T11:56:58;27.80;63.60
19174;DHT22;9719;49.322;8.536;2023-07-08T12:02:12;27.80;63.50
19174;DHT22;9719;49.322;8.536;2023-07-08T12:07:17;27.80;63.50
19174;DHT22;9719;49.322;8.536;2023-07-08T12:12:24;27.80;63.50
19174;DHT22;9719;49.322;8.536;2023-07-08T12:17:28;27.70;63.40
19174;DHT22;9719;49.322;8.536;2023-07-08T12:22:32;27.70;63.30
19174;DHT22;9719;49.322;8.536;2023-07-08T12:27:34;27.70;63.20
19174;DHT22;9719;49.322;8.536;2023-07-08T12:32:37;27.60;62.90
19174;DHT22;9719;49.322;8.536;2023-07-08T12:37:39;27.60;62.70
19174;DHT22;9719;49.322;8.536;2023-07-08T12:42:40;27.50;62.50
19174;DHT22;9719;49.322;8.536;2023-07-08T12:47:44;27.50;62.20
19174;DHT22;9719;49.322;8.536;2023-07-08T12:52:47;27.50;62.00
19174;DHT22;9719;49.322;8.536;2023-07-08T12:57:51;27.50;61.70
19174;DHT22;9719;49.322;8.536;2023-07-08T13:02:57;27.40;61.40
19174;DHT22;9719;49.322;8.536;2023-07-08T13:07:59;27.40;61.20
19174;DHT22;9719;49.322;8.536;2023-07-08T13:13:04;27.40;61.30
19174;DHT22;9719;49.322;8.536;2023-07-08T13:18:14;27.30;61.00
19174;DHT22;9719;49.322;8.536;2023-07-08T13:23:16;27.40;60.90
19174;DHT22;9719;49.322;8.536;2023-07-08T13:28:23;27.30;60.90
19174;DHT22;9719;49.322;8.536;2023-07-08T13:33:31;27.30;60.80
19174;DHT22;9719;49.322;8.536;2023-07-08T13:38:34;27.30;60.60
19174;DHT22;9719;49.322;8.536;2023-07-08T13:43:38;27.30;60.60
19174;DHT22;9719;49.322;8.536;2023-07-08T13:48:43;27.30;60.40
19174;DHT22;9719;49.322;8.536;2023-07-08T13:53:46;27.30;60.40
19174;DHT22;9719;49.322;8.536;2023-07-08T13:58:50;27.20;60.30
19174;DHT22;9719;49.322;8.536;2023-07-08T14:03:54;27.20;60.20
19174;DHT22;9719;49.322;8.536;2023-07-08T14:08:57;27.20;60.10
19174;DHT22;9719;49.322;8.536;2023-07-08T14:13:59;27.20;60.10
19174;DHT22;9719;49.322;8.536;2023-07-08T14:19:03;27.20;60.20
19174;DHT22;9719;49.322;8.536;2023-07-08T14:24:10;27.30;60.30
19174;DHT22;9719;49.322;8.536;2023-07-08T14:29:13;27.30;60.50
19174;DHT22;9719;49.322;8.536;2023-07-08T14:34:20;27.40;60.60
19174;DHT22;9719;49.322;8.536;2023-07-08T14:39:23;27.50;60.90
19174;DHT22;9719;49.322;8.536;2023-07-08T14:44:29;27.50;61.10
19174;DHT22;9719;49.322;8.536;2023-07-08T14:49:33;27.60;61.20
19174;DHT22;9719;49.322;8.536;2023-07-08T14:54:35;27.70;61.20
19174;DHT22;9719;49.322;8.536;2023-07-08T14:59:36;27.70;61.20
19174;DHT22;9719;49.322;8.536;2023-07-08T15:04:39;27.80;61.30
19174;DHT22;9719;49.322;8.536;2023-07-08T15:09:41;27.90;61.30
19174;DHT22;9719;49.322;8.536;2023-07-08T15:14:42;27.90;61.30
19174;DHT22;9719;49.322;8.536;2023-07-08T15:19:46;28.00;61.40
19174;DHT22;9719;49.322;8.536;2023-07-08T15:24:47;28.10;61.40
19174;DHT22;9719;49.322;8.536;2023-07-08T15:29:49;28.10;61.40
19174;DHT22;9719;49.322;8.536;2023-07-08T15:34:52;28.10;61.40
19174;DHT22;9719;49.322;8.536;2023-07-08T15:39:54;28.20;61.40
19174;DHT22;9719;49.322;8.536;2023-07-08T15:44:56;28.20;61.40
19174;DHT22;9719;49.322;8.536;2023-07-08T15:49:59;28.30;61.60
19174;DHT22;9719;49.322;8.536;2023-07-08T15:55:00;28.30;61.50
19174;DHT22;9719;49.322;8.536;2023-07-08T16:00:02;28.30;61.60
19174;DHT22;9719;49.322;8.536;2023-07-08T16:05:08;28.40;61.70
19174;DHT22;9719;49.322;8.536;2023-07-08T16:10:10;28.40;61.50
19174;DHT22;9719;49.322;8.536;2023-07-08T16:15:17;28.40;61.50
19174;DHT22;9719;49.322;8.536;2023-07-08T16:20:24;28.50;61.50
19174;DHT22;9719;49.322;8.536;2023-07-08T16:25:28;28.50;61.60
19174;DHT22;9719;49.322;8.536;2023-07-08T16:30:31;28.50;61.50
19174;DHT22;9719;49.322;8.536;2023-07-08T16:35:34;28.60;61.50
19174;DHT22;9719;49.322;8.536;2023-07-08T16:40:36;28.60;61.50
19174;DHT22;9719;49.322;8.536;2023-07-08T16:45:38;28.60;61.50
19174;DHT22;9719;49.322;8.536;2023-07-08T16:50:41;28.70;61.50
19174;DHT22;9719;49.322;8.536;2023-07-08T16:55:42;28.70;61.40
19174;DHT22;9719;49.322;8.536;2023-07-08T17:00:45;28.70;61.40
19174;DHT22;9719;49.322;8.536;2023-07-08T17:05:49;28.70;61.40
19174;DHT22;9719;49.322;8.536;2023-07-08T17:10:51;28.80;61.40
19174;DHT22;9719;49.322;8.536;2023-07-08T17:15:54;28.80;61.40
19174;DHT22;9719;49.322;8.536;2023-07-08T17:20:58;28.80;61.40
19174;DHT22;9719;49.322;8.536;2023-07-08T17:26:00;28.90;61.50
19174;DHT22;9719;49.322;8.536;2023-07-08T17:31:02;28.90;61.40
19174;DHT22;9719;49.322;8.536;2023-07-08T17:36:10;28.90;61.40
19174;DHT22;9719;49.322;8.536;2023-07-08T17:41:13;28.90;61.40
19174;DHT22;9719;49.322;8.536;2023-07-08T17:46:17;28.90;61.50
19174;DHT22;9719;49.322;8.536;2023-07-08T17:51:22;28.90;61.50
19174;DHT22;9719;49.322;8.536;2023-07-08T17:56:28;28.90;61.50
19174;DHT22;9719;49.322;8.536;2023-07-08T18:01:31;28.90;61.50
19174;DHT22;9719;49.322;8.536;2023-07-08T18:06:34;28.90;61.60
19174;DHT22;9719;49.322;8.536;2023-07-08T18:11:40;28.90;61.60
19174;DHT22;9719;49.322;8.536;2023-07-08T18:16:44;28.90;61.70
19174;DHT22;9719;49.322;8.536;2023-07-08T18:21:47;28.80;61.60
19174;DHT22;9719;49.322;8.536;2023-07-08T18:26:49;28.80;61.70
19174;DHT22;9719;49.322;8.536;2023-07-08T18:31:51;28.80;61.80
19174;DHT22;9719;49.322;8.536;2023-07-08T18:36:54;28.80;61.90
19174;DHT22;9719;49.322;8.536;2023-07-08T18:41:56;28.90;62.00
19174;DHT22;9719;49.322;8.536;2023-07-08T18:46:58;28.80;62.00
19174;DHT22;9719;49.322;8.536;2023-07-08T18:52:01;28.80;62.10
19174;DHT22;9719;49.322;8.536;2023-07-08T18:57:04;28.80;62.10
19174;DHT22;9719;49.322;8.536;2023-07-08T19:02:28;28.90;62.40
19174;DHT22;9719;49.322;8.536;2023-07-08T19:07:32;28.90;62.40
19174;DHT22;9719;49.322;8.536;2023-07-08T19:12:34;28.80;62.50
19174;DHT22;9719;49.322;8.536;2023-07-08T19:17:36;28.80;62.60
19174;DHT22;9719;49.322;8.536;2023-07-08T19:22:39;28.80;62.90
19174;DHT22;9719;49.322;8.536;2023-07-08T19:27:41;28.80;64.70
19174;DHT22;9719;49.322;8.536;2023-07-08T19:32:45;28.80;64.90
19174;DHT22;9719;49.322;8.536;2023-07-08T19:37:51;28.70;65.30
19174;DHT22;9719;49.322;8.536;2023-07-08T19:42:53;28.70;65.40
19174;DHT22;9719;49.322;8.536;2023-07-08T19:47:56;28.70;65.60
19174;DHT22;9719;49.322;8.536;2023-07-08T19:52:59;28.80;65.70
19174;DHT22;9719;49.322;8.536;2023-07-08T19:58:01;28.80;65.70
19174;DHT22;9719;49.322;8.536;2023-07-08T20:03:03;28.80;65.80
19174;DHT22;9719;49.322;8.536;2023-07-08T20:08:20;28.80;66.00
19174;DHT22;9719;49.322;8.536;2023-07-08T20:13:23;28.80;65.60
19174;DHT22;9719;49.322;8.536;2023-07-08T20:18:27;28.70;65.80
19174;DHT22;9719;49.322;8.536;2023-07-08T20:23:30;28.80;65.60
19174;DHT22;9719;49.322;8.536;2023-07-08T20:28:33;28.70;65.50
19174;DHT22;9719;49.322;8.536;2023-07-08T20:33:35;28.70;65.80
19174;DHT22;9719;49.322;8.536;2023-07-08T20:38:38;28.60;66.70
19174;DHT22;9719;49.322;8.536;2023-07-08T20:43:39;28.50;67.10
19174;DHT22;9719;49.322;8.536;2023-07-08T20:48:41;28.40;67.90
19174;DHT22;9719;49.322;8.536;2023-07-08T20:53:44;28.40;68.00
19174;DHT22;9719;49.322;8.536;2023-07-08T20:58:46;28.40;68.50
19174;DHT22;9719;49.322;8.536;2023-07-08T21:03:47;28.40;68.30
19174;DHT22;9719;49.322;8.536;2023-07-08T21:08:51;28.40;68.30
19174;DHT22;9719;49.322;8.536;2023-07-08T21:13:53;28.50;68.60
19174;DHT22;9719;49.322;8.536;2023-07-08T21:18:56;28.40;68.60
19174;DHT22;9719;49.322;8.536;2023-07-08T21:23:59;28.40;68.60
19174;DHT22;9719;49.322;8.536;2023-07-08T21:29:02;28.40;68.60
19174;DHT22;9719;49.322;8.536;2023-07-08T21:34:04;28.40;68.80
19174;DHT22;9719;49.322;8.536;2023-07-08T21:39:19;28.40;68.70
19174;DHT22;9719;49.322;8.536;2023-07-08T21:44:21;28.50;68.80
19174;DHT22;9719;49.322;8.536;2023-07-08T21:49:23;28.40;69.20
19174;DHT22;9719;49.322;8.536;2023-07-08T21:54:26;28.40;69.20
19174;DHT22;9719;49.322;8.536;2023-07-08T21:59:28;28.40;69.50
19174;DHT22;9719;49.322;8.536;2023-07-08T22:04:35;28.40;69.70
19174;DHT22;9719;49.322;8.536;2023-07-08T22:09:38;28.30;70.40
19174;DHT22;9719;49.322;8.536;2023-07-08T22:14:39;28.30;69.60
19174;DHT22;9719;49.322;8.536;2023-07-08T22:19:42;28.30;69.90
19174;DHT22;9719;49.322;8.536;2023-07-08T22:24:45;28.30;70.00
19174;DHT22;9719;49.322;8.536;2023-07-08T22:29:46;28.20;70.10
19174;DHT22;9719;49.322;8.536;2023-07-08T22:34:48;28.20;70.30
19174;DHT22;9719;49.322;8.536;2023-07-08T22:39:51;28.20;70.60
19174;DHT22;9719;49.322;8.536;2023-07-08T22:44:53;28.10;70.70
19174;DHT22;9719;49.322;8.536;2023-07-08T22:49:54;28.10;70.90
19174;DHT22;9719;49.322;8.536;2023-07-08T22:54:58;28.00;71.20
19174;DHT22;9719;49.322;8.536;2023-07-08T23:00:00;28.00;71.30
19174;DHT22;9719;49.322;8.536;2023-07-08T23:05:02;28.00;71.40
19174;DHT22;9719;49.322;8.536;2023-07-08T23:10:06;28.00;71.50
19174;DHT22;9719;49.322;8.536;2023-07-08T23:15:09;28.00;71.60
19174;DHT22;9719;49.322;8.536;2023-07-08T23:20:15;28.00;71.80
19174;DHT22;9719;49.322;8.536;2023-07-08T23:25:19;28.00;71.90
19174;DHT22;9719;49.322;8.536;2023-07-08T23:30:21;28.00;71.90
19174;DHT22;9719;49.322;8.536;2023-07-08T23:35:22;28.00;72.00
19174;DHT22;9719;49.322;8.536;2023-07-08T23:40:25;28.00;72.00
19174;DHT22;9719;49.322;8.536;2023-07-08T23:45:27;28.00;72.20
19174;DHT22;9719;49.322;8.536;2023-07-08T23:50:28;28.00;72.40
19174;DHT22;9719;49.322;8.536;2023-07-08T23:55:32;27.90;72.40
